createdAt,value
2022-10-08T00:01:35.984Z,21.83
2022-10-08T00:04:34.424Z,25.10
2022-10-08T00:07:32.794Z,23.95
2022-10-08T00:13:47.230Z,21.42
2022-10-08T00:16:45.423Z,16.17
2022-10-08T00:19:44.188Z,15.07
2022-10-08T00:22:42.308Z,23.48
2022-10-08T00:25:42.810Z,17.77
2022-10-08T00:28:44.573Z,12.43
2022-10-08T00:31:46.228Z,23.30
2022-10-08T00:34:44.465Z,14.45
2022-10-08T00:37:42.902Z,12.98
2022-10-08T00:43:47.103Z,20.13
2022-10-08T00:46:50.422Z,15.30
2022-10-08T00:49:51.738Z,18.58
2022-10-08T00:52:54.745Z,18.70
2022-10-08T00:55:53.124Z,20.13
2022-10-08T01:01:50.591Z,17.98
2022-10-08T01:04:49.442Z,17.83
2022-10-08T01:08:05.572Z,20.48
2022-10-08T01:11:29.055Z,21.23
2022-10-08T01:14:49.029Z,19.23
2022-10-08T01:18:06.489Z,17.52
2022-10-08T01:21:27.872Z,25.63
2022-10-08T01:25:00.167Z,20.42
2022-10-08T01:28:08.442Z,15.15
2022-10-08T01:34:13.623Z,17.75
2022-10-08T01:37:18.664Z,17.20
2022-10-08T01:40:22.979Z,29.95
2022-10-08T01:43:24.584Z,30.58
2022-10-08T01:46:29.565Z,22.25
2022-10-08T01:49:31.797Z,17.95
2022-10-08T01:52:37.440Z,19.80
2022-10-08T01:55:39.602Z,27.25
2022-10-08T01:58:53.684Z,22.35
2022-10-08T02:02:06.815Z,15.63
2022-10-08T02:05:06.913Z,17.48
2022-10-08T02:08:05.241Z,18.55
2022-10-08T02:11:03.800Z,22.85
2022-10-08T02:14:02.211Z,22.42
2022-10-08T02:17:17.571Z,24.70
2022-10-08T02:20:23.549Z,15.77
2022-10-08T02:23:31.375Z,17.60
2022-10-08T02:26:35.441Z,19.40
2022-10-08T02:29:42.078Z,19.17
2022-10-08T02:33:03.150Z,36.05
2022-10-08T02:36:04.865Z,53.72
2022-10-08T02:39:05.258Z,43.33
2022-10-08T02:42:10.710Z,32.80
2022-10-08T02:45:17.316Z,22.05
2022-10-08T02:48:24.344Z,29.20
2022-10-08T02:51:22.980Z,33.50
2022-10-08T02:54:23.647Z,39.33
2022-10-08T02:57:40.092Z,38.97
2022-10-08T03:00:49.673Z,29.40
2022-10-08T03:03:55.585Z,23.40
2022-10-08T03:06:55.593Z,16.58
2022-10-08T03:09:55.909Z,19.73
2022-10-08T03:13:02.281Z,32.30
2022-10-08T03:16:00.521Z,21.00
2022-10-08T03:19:02.683Z,17.13
2022-10-08T03:22:02.298Z,17.58
2022-10-08T03:25:00.699Z,25.70
2022-10-08T03:27:58.915Z,22.98
2022-10-08T03:30:57.493Z,22.90
2022-10-08T03:33:56.552Z,20.33
2022-10-08T03:36:55.084Z,16.55
2022-10-08T03:39:53.238Z,23.73
2022-10-08T03:42:52.348Z,23.15
2022-10-08T03:45:54.579Z,21.63
2022-10-08T03:48:53.275Z,27.13
2022-10-08T03:51:51.480Z,14.77
2022-10-08T03:54:49.887Z,21.67
2022-10-08T03:57:48.249Z,23.92
2022-10-08T04:01:01.456Z,14.60
2022-10-08T04:03:59.654Z,21.48
2022-10-08T04:06:58.402Z,34.03
2022-10-08T04:09:56.586Z,33.28
2022-10-08T04:12:55.037Z,23.50
2022-10-08T04:15:53.284Z,36.42
2022-10-08T04:18:51.907Z,24.50
2022-10-08T04:21:50.040Z,29.58
2022-10-08T04:24:48.465Z,26.23
2022-10-08T04:27:49.672Z,34.28
2022-10-08T04:30:57.094Z,34.20
2022-10-08T04:33:55.396Z,33.90
2022-10-08T04:36:53.841Z,45.38
2022-10-08T04:39:52.106Z,28.75
2022-10-08T04:42:52.509Z,31.90
2022-10-08T04:45:50.677Z,29.45
2022-10-08T04:48:51.993Z,33.47
2022-10-08T04:51:50.154Z,34.75
2022-10-08T04:54:49.220Z,37.55
2022-10-08T04:57:47.340Z,33.13
2022-10-08T05:00:45.944Z,38.30
2022-10-08T05:03:47.583Z,33.15
2022-10-08T05:06:46.014Z,47.03
2022-10-08T05:09:44.117Z,23.27
2022-10-08T05:12:42.569Z,31.20
2022-10-08T05:15:40.729Z,35.25
2022-10-08T05:18:40.340Z,34.95
2022-10-08T05:21:38.518Z,25.52
2022-10-08T05:24:37.027Z,30.35
2022-10-08T05:27:35.365Z,27.55
2022-10-08T05:30:33.762Z,38.67
2022-10-08T05:33:31.996Z,17.98
2022-10-08T05:36:32.513Z,23.27
2022-10-08T05:39:30.616Z,20.95
2022-10-08T05:42:29.122Z,30.15
2022-10-08T05:45:27.222Z,31.42
2022-10-08T05:48:25.645Z,35.00
2022-10-08T05:51:24.604Z,27.65
2022-10-08T05:54:23.107Z,26.40
2022-10-08T05:57:21.230Z,28.30
2022-10-08T06:00:19.741Z,27.55
2022-10-08T06:03:17.850Z,25.65
2022-10-08T06:06:16.593Z,22.35
2022-10-08T06:09:17.535Z,23.10
2022-10-08T06:12:15.838Z,21.77
2022-10-08T06:15:13.990Z,21.58
2022-10-08T06:18:13.579Z,31.05
2022-10-08T06:21:14.640Z,24.42
2022-10-08T06:24:13.469Z,30.15
2022-10-08T06:27:11.576Z,35.17
2022-10-08T06:30:10.581Z,30.17
2022-10-08T06:33:10.216Z,26.88
2022-10-08T06:36:16.048Z,41.50
2022-10-08T06:39:16.410Z,38.33
2022-10-08T06:42:14.794Z,27.90
2022-10-08T06:45:12.931Z,37.63
2022-10-08T06:48:12.547Z,38.50
2022-10-08T06:51:13.901Z,27.70
2022-10-08T06:54:12.426Z,35.30
2022-10-08T06:57:10.545Z,26.83
2022-10-08T07:00:09.610Z,32.40
2022-10-08T07:03:07.835Z,43.33
2022-10-08T07:06:09.169Z,22.67
2022-10-08T07:09:08.125Z,30.00
2022-10-08T07:12:06.790Z,33.30
2022-10-08T07:15:05.317Z,40.95
2022-10-08T07:18:05.067Z,37.78
2022-10-08T07:21:03.999Z,31.98
2022-10-08T07:24:02.743Z,34.88
2022-10-08T07:27:01.836Z,35.40
2022-10-08T07:30:00.451Z,28.60
2022-10-08T07:33:00.747Z,32.75
2022-10-08T07:36:15.443Z,42.58
2022-10-08T07:39:15.755Z,45.00
2022-10-08T07:42:18.138Z,36.65
2022-10-08T07:45:18.055Z,50.53
2022-10-08T07:48:18.527Z,49.88
2022-10-08T07:51:19.927Z,38.28
2022-10-08T07:54:20.116Z,44.95
2022-10-08T07:57:18.265Z,40.13
2022-10-08T08:00:16.899Z,45.95
2022-10-08T08:03:15.302Z,42.80
2022-10-08T08:06:16.356Z,42.95
2022-10-08T08:09:14.932Z,45.03
2022-10-08T08:12:13.886Z,46.97
2022-10-08T08:15:20.677Z,49.17
2022-10-08T08:18:19.183Z,48.60
2022-10-08T08:21:20.576Z,48.88
2022-10-08T08:24:19.245Z,44.70
2022-10-08T08:27:18.428Z,48.00
2022-10-08T08:30:16.881Z,42.85
2022-10-08T08:33:15.505Z,44.05
2022-10-08T08:36:14.010Z,59.42
2022-10-08T08:39:17.899Z,46.13
2022-10-08T08:42:43.383Z,45.95
2022-10-08T08:45:46.934Z,36.47
2022-10-08T08:48:47.293Z,40.92
2022-10-08T08:51:45.534Z,45.80
2022-10-08T08:54:47.348Z,40.85
2022-10-08T08:57:59.756Z,50.10
2022-10-08T09:01:13.684Z,51.28
2022-10-08T09:04:23.762Z,50.40
2022-10-08T09:07:28.197Z,50.20
2022-10-08T09:10:39.673Z,59.53
2022-10-08T09:14:00.191Z,45.90
2022-10-08T09:17:00.714Z,54.00
2022-10-08T09:20:00.888Z,46.13
2022-10-08T09:22:59.892Z,51.50
2022-10-08T09:26:04.979Z,47.78
2022-10-08T09:29:05.492Z,57.45
2022-10-08T09:32:04.884Z,52.80
2022-10-08T09:35:10.766Z,60.25
2022-10-08T09:38:20.690Z,48.05
2022-10-08T09:41:20.192Z,58.22
2022-10-08T09:44:22.857Z,51.53
2022-10-08T09:47:23.343Z,45.50
2022-10-08T09:50:22.918Z,43.55
2022-10-08T09:53:23.312Z,53.67
2022-10-08T09:56:28.043Z,35.00
2022-10-08T09:59:30.847Z,42.70
2022-10-08T10:02:35.329Z,44.58
2022-10-08T10:05:36.517Z,35.88
2022-10-08T10:08:56.500Z,39.20
2022-10-08T10:12:02.118Z,34.28
2022-10-08T10:15:04.901Z,38.92
2022-10-08T10:18:09.330Z,38.25
2022-10-08T10:21:14.364Z,35.60
2022-10-08T10:24:34.050Z,40.00
2022-10-08T10:27:39.015Z,38.58
2022-10-08T10:30:52.542Z,49.05
2022-10-08T10:34:02.916Z,38.75
2022-10-08T10:37:05.197Z,45.10
2022-10-08T10:40:30.001Z,43.60
2022-10-08T10:43:38.606Z,32.38
2022-10-08T10:46:44.611Z,41.00
2022-10-08T10:49:44.322Z,38.72
2022-10-08T10:53:05.741Z,39.80
2022-10-08T10:56:20.572Z,27.08
2022-10-08T10:59:34.033Z,36.78
2022-10-08T11:02:51.831Z,38.13
2022-10-08T11:06:12.860Z,40.17
2022-10-08T11:09:34.534Z,37.65
2022-10-08T11:12:45.204Z,64.72
2022-10-08T11:16:08.303Z,101.70
2022-10-08T11:19:17.121Z,79.97
2022-10-08T11:22:45.167Z,57.67
2022-10-08T11:26:23.106Z,48.70
2022-10-08T11:29:41.034Z,27.13
2022-10-08T11:32:41.970Z,31.35
2022-10-08T11:36:02.445Z,43.28
2022-10-08T11:39:19.618Z,36.92
2022-10-08T11:42:43.961Z,31.73
2022-10-08T11:45:46.756Z,32.47
2022-10-08T11:48:44.948Z,28.73
2022-10-08T11:51:52.710Z,28.77
2022-10-08T11:54:55.345Z,32.70
2022-10-08T11:58:18.231Z,25.92
2022-10-08T12:01:16.564Z,21.95
2022-10-08T12:04:22.641Z,26.30
2022-10-08T12:07:38.475Z,25.40
2022-10-08T12:10:39.501Z,26.25
2022-10-08T12:13:37.956Z,37.70
2022-10-08T12:17:07.359Z,24.67
2022-10-08T12:20:27.356Z,39.67
2022-10-08T12:23:40.364Z,45.08
2022-10-08T12:27:13.708Z,56.42
2022-10-08T12:30:14.638Z,48.88
2022-10-08T12:33:13.529Z,60.10
2022-10-08T12:36:22.241Z,40.13
2022-10-08T12:39:41.121Z,47.50
2022-10-08T12:42:42.845Z,49.30
2022-10-08T12:45:55.392Z,49.70
2022-10-08T12:49:01.868Z,49.92
2022-10-08T12:52:12.192Z,47.33
2022-10-08T12:55:18.027Z,48.33
2022-10-08T12:58:19.628Z,43.65
2022-10-08T13:01:20.594Z,42.05
2022-10-08T13:04:24.012Z,44.25
2022-10-08T13:07:29.478Z,43.75
2022-10-08T13:10:29.997Z,39.58
2022-10-08T13:13:50.678Z,43.60
2022-10-08T13:16:49.314Z,42.97
2022-10-08T13:19:47.957Z,46.45
2022-10-08T13:22:46.270Z,37.95
2022-10-08T13:25:44.886Z,34.63
2022-10-08T13:28:59.836Z,33.75
2022-10-08T13:32:23.469Z,41.30
2022-10-08T13:35:24.370Z,32.50
2022-10-08T13:38:27.666Z,28.98
2022-10-08T13:41:26.077Z,35.35
2022-10-08T13:44:26.167Z,31.77
2022-10-08T13:47:24.556Z,35.47
2022-10-08T13:50:24.235Z,34.13
2022-10-08T13:53:24.553Z,37.50
2022-10-08T13:56:24.740Z,29.90
2022-10-08T13:59:26.986Z,29.45
2022-10-08T14:02:28.150Z,28.40
2022-10-08T14:05:29.154Z,35.40
2022-10-08T14:08:30.320Z,36.88
2022-10-08T14:11:28.535Z,26.27
2022-10-08T14:14:28.863Z,25.13
2022-10-08T14:17:27.415Z,27.20
2022-10-08T14:20:26.095Z,24.80
2022-10-08T14:23:24.251Z,21.42
2022-10-08T14:26:22.961Z,28.35
2022-10-08T14:29:21.511Z,24.30
2022-10-08T14:32:20.021Z,21.98
2022-10-08T14:35:18.443Z,26.83
2022-10-08T14:38:18.920Z,28.25
2022-10-08T14:41:17.470Z,28.08
2022-10-08T14:44:17.231Z,19.80
2022-10-08T14:47:16.013Z,28.05
2022-10-08T14:50:14.985Z,33.20
2022-10-08T14:53:14.467Z,27.58
2022-10-08T14:56:13.329Z,33.10
2022-10-08T14:59:12.340Z,41.20
2022-10-08T15:02:12.256Z,32.28
2022-10-08T15:05:10.537Z,32.40
2022-10-08T15:08:09.021Z,28.10
2022-10-08T15:11:07.804Z,32.28
2022-10-08T15:14:06.667Z,29.90
2022-10-08T15:17:04.880Z,39.33
2022-10-08T15:20:03.919Z,27.75
2022-10-08T15:23:02.467Z,33.03
2022-10-08T15:26:04.070Z,61.65
2022-10-08T15:29:02.606Z,61.15
2022-10-08T15:32:01.163Z,51.30
2022-10-08T15:34:59.663Z,62.63
2022-10-08T15:37:58.112Z,65.00
2022-10-08T15:41:03.153Z,52.95
2022-10-08T15:44:23.141Z,45.28
2022-10-08T15:47:21.351Z,42.83
2022-10-08T15:50:19.837Z,51.88
2022-10-08T15:53:18.121Z,33.10
2022-10-08T15:56:17.259Z,37.65
2022-10-08T15:59:15.465Z,33.00
2022-10-08T16:02:17.400Z,38.10
2022-10-08T16:05:16.237Z,35.03
2022-10-08T16:08:14.707Z,31.58
2022-10-08T16:11:23.069Z,25.80
2022-10-08T16:14:25.020Z,34.53
2022-10-08T16:17:23.568Z,32.78
2022-10-08T16:20:22.191Z,24.23
2022-10-08T16:23:20.405Z,26.50
2022-10-08T16:26:22.373Z,35.45
2022-10-08T16:29:20.681Z,32.00
2022-10-08T16:32:19.221Z,35.53
2022-10-08T16:35:17.482Z,27.40
2022-10-08T16:38:16.086Z,25.30
2022-10-08T16:41:18.064Z,31.77
2022-10-08T16:44:19.509Z,35.15
2022-10-08T16:47:17.721Z,30.02
2022-10-08T16:50:16.277Z,32.58
2022-10-08T16:53:14.759Z,22.83
2022-10-08T16:56:13.684Z,27.92
2022-10-08T16:59:15.095Z,25.75
2022-10-08T17:02:13.584Z,31.35
2022-10-08T17:05:11.827Z,28.70
2022-10-08T17:08:10.354Z,26.73
2022-10-08T17:11:10.756Z,25.25
2022-10-08T17:14:10.704Z,22.27
2022-10-08T17:17:09.019Z,30.27
2022-10-08T17:20:08.101Z,19.95
2022-10-08T17:23:06.617Z,23.05
2022-10-08T17:26:08.510Z,31.92
2022-10-08T17:29:09.239Z,29.58
2022-10-08T17:32:08.144Z,36.70
2022-10-08T17:35:06.705Z,27.27
2022-10-08T17:38:05.296Z,31.02
2022-10-08T17:41:14.603Z,27.52
2022-10-08T17:44:13.696Z,27.48
2022-10-08T17:47:12.086Z,23.25
2022-10-08T17:50:10.549Z,38.65
2022-10-08T17:53:08.631Z,32.38
2022-10-08T17:56:09.561Z,28.38
2022-10-08T17:59:08.556Z,35.25
2022-10-08T18:02:07.077Z,32.85
2022-10-08T18:05:05.580Z,46.42
2022-10-08T18:08:04.128Z,32.40
2022-10-08T18:11:04.661Z,44.90
2022-10-08T18:14:04.628Z,41.42
2022-10-08T18:17:02.797Z,38.92
2022-10-08T18:20:01.201Z,41.75
2022-10-08T18:22:59.330Z,45.95
2022-10-08T18:26:21.371Z,48.60
2022-10-08T18:29:19.502Z,39.88
2022-10-08T18:32:17.916Z,44.17
2022-10-08T18:35:16.421Z,45.97
2022-10-08T18:38:15.141Z,37.38
2022-10-08T18:41:17.364Z,45.40
2022-10-08T18:44:21.042Z,46.30
2022-10-08T18:47:19.137Z,45.65
2022-10-08T18:50:17.589Z,40.00
2022-10-08T18:53:15.759Z,43.63
2022-10-08T18:56:18.344Z,43.60
2022-10-08T18:59:17.607Z,37.80
2022-10-08T19:02:16.183Z,39.92
2022-10-08T19:05:14.359Z,42.83
2022-10-08T19:08:12.705Z,39.40
2022-10-08T19:11:14.133Z,40.20
2022-10-08T19:14:14.422Z,43.75
2022-10-08T19:17:13.042Z,51.08
2022-10-08T19:20:11.795Z,45.20
2022-10-08T19:23:09.900Z,35.65
2022-10-08T19:26:08.569Z,45.60
2022-10-08T19:29:06.678Z,42.63
2022-10-08T19:32:05.194Z,37.38
2022-10-08T19:35:03.482Z,35.75
2022-10-08T19:38:02.381Z,42.65
2022-10-08T19:41:00.455Z,37.53
2022-10-08T19:43:59.550Z,36.65
2022-10-08T19:46:57.779Z,33.50
2022-10-08T19:49:56.171Z,29.42
2022-10-08T19:55:54.444Z,36.78
2022-10-08T19:58:53.836Z,35.00
2022-10-08T20:01:52.317Z,40.65
2022-10-08T20:04:50.404Z,39.13
2022-10-08T20:07:48.835Z,34.80
2022-10-08T20:13:47.060Z,34.17
2022-10-08T20:16:45.250Z,36.85
2022-10-08T20:19:43.855Z,45.72
2022-10-08T20:22:42.194Z,29.90
2022-10-08T20:25:42.722Z,32.78
2022-10-08T20:28:41.048Z,31.83
2022-10-08T20:31:43.927Z,31.20
2022-10-08T20:34:42.075Z,39.63
2022-10-08T20:37:40.650Z,30.58
2022-10-08T20:40:39.471Z,29.85
2022-10-08T20:43:39.209Z,30.05
2022-10-08T20:46:38.747Z,49.40
2022-10-08T20:49:37.338Z,32.53
2022-10-08T20:52:35.585Z,37.70
2022-10-08T20:55:37.041Z,38.40
2022-10-08T20:58:36.449Z,41.38
2022-10-08T21:01:38.683Z,44.03
2022-10-08T21:04:36.933Z,47.63
2022-10-08T21:07:35.383Z,40.03
2022-10-08T21:13:35.154Z,44.42
2022-10-08T21:16:36.884Z,40.42
2022-10-08T21:19:35.482Z,48.08
2022-10-08T21:22:33.624Z,42.20
2022-10-08T21:25:32.120Z,40.65
2022-10-08T21:28:31.047Z,45.53
2022-10-08T21:31:32.602Z,46.17
2022-10-08T21:34:30.839Z,46.30
2022-10-08T21:37:29.462Z,45.50
2022-10-08T21:43:25.918Z,48.53
2022-10-08T21:46:26.730Z,44.90
2022-10-08T21:49:25.617Z,46.13
2022-10-08T21:52:23.892Z,50.05
2022-10-08T21:55:22.879Z,39.47
2022-10-08T21:58:21.422Z,43.88
2022-10-08T22:01:32.004Z,51.38
2022-10-08T22:04:30.120Z,45.08
2022-10-08T22:07:28.590Z,44.88
2022-10-08T22:13:24.861Z,46.15
2022-10-08T22:19:21.965Z,46.97
2022-10-08T22:22:20.271Z,45.45
2022-10-08T22:25:18.667Z,31.30
2022-10-08T22:31:17.096Z,31.73
2022-10-08T22:34:15.377Z,30.75
2022-10-08T22:37:13.813Z,31.00
2022-10-08T22:43:10.186Z,29.45
2022-10-08T22:46:11.789Z,31.67
2022-10-08T22:49:12.645Z,21.20
2022-10-08T22:52:10.812Z,26.73
2022-10-08T22:55:09.313Z,24.95
2022-10-08T22:58:07.520Z,30.55
2022-10-08T23:01:08.365Z,28.77
2022-10-08T23:04:06.588Z,22.35
2022-10-08T23:07:05.128Z,26.65
2022-10-08T23:10:03.448Z,34.13
2022-10-08T23:13:01.899Z,32.97
2022-10-08T23:19:06.803Z,21.77
2022-10-08T23:22:05.136Z,27.92
2022-10-08T23:25:03.853Z,20.83
2022-10-08T23:28:02.151Z,25.08
2022-10-08T23:31:10.416Z,29.80
2022-10-08T23:34:09.359Z,32.05
2022-10-08T23:37:07.871Z,34.33
2022-10-08T23:40:06.330Z,34.63
2022-10-08T23:43:04.843Z,33.00
2022-10-08T23:46:03.768Z,30.42
2022-10-08T23:49:02.288Z,33.45
2022-10-08T23:52:00.592Z,30.23
2022-10-08T23:54:59.011Z,28.33
